TimePST,TemperatureF,Dew PointF,Humidity,Sea Level PressureIn,VisibilityMPH,Wind Direction,Wind SpeedMPH,Gust SpeedMPH,PrecipitationIn,Events,Conditions,WindDirDegrees,DateUTC
12:53 AM,61.0,41.0,48,30.06,10.0,WSW,5.8,-,N/A,,Partly Cloudy,250,2012-12-29 08:53:00
1:53 AM,61.0,39.9,46,30.06,10.0,WSW,4.6,-,N/A,,Clear,250,2012-12-29 09:53:00
2:53 AM,59.0,41.0,51,30.04,10.0,Calm,Calm,-,N/A,,Scattered Clouds,0,2012-12-29 10:53:00
3:53 AM,64.9,42.1,43,30.02,10.0,SE,4.6,-,N/A,,Overcast,140,2012-12-29 11:53:00
4:53 AM,66.0,44.1,45,30.01,10.0,SSE,8.1,-,N/A,,Mostly Cloudy,150,2012-12-29 12:53:00
5:41 AM,66.2,46.4,49,30.02,10.0,South,6.9,-,0.00,Rain,Light Rain,170,2012-12-29 13:41:00
5:53 AM,66.9,46.0,47,30.01,7.0,South,9.2,-,0.00,Rain,Light Rain,170,2012-12-29 13:53:00
6:02 AM,66.2,46.4,49,30.02,10.0,SSE,8.1,-,0.00,Rain,Light Rain,160,2012-12-29 14:02:00
6:31 AM,60.8,46.4,59,30.03,2.5,SSW,4.6,-,0.04,Rain,Rain,200,2012-12-29 14:31:00
6:40 AM,66.2,48.2,52,30.03,0.8,West,5.8,-,0.27,Rain,Heavy Rain,280,2012-12-29 14:40:00
6:44 AM,64.4,48.2,56,30.03,0.8,West,5.8,-,0.33,Rain,Heavy Rain,270,2012-12-29 14:44:00
6:53 AM,66.9,48.0,51,30.02,1.8,WSW,8.1,-,0.38,Rain,Heavy Rain,240,2012-12-29 14:53:00
6:55 AM,66.2,48.2,52,30.03,2.0,SW,12.7,16.1,0.01,Rain,Heavy Rain,230,2012-12-29 14:55:00
7:11 AM,64.4,48.2,56,30.03,3.0,WSW,12.7,-,0.07,Rain,Heavy Rain,240,2012-12-29 15:11:00
7:14 AM,64.4,48.2,56,30.03,3.0,WSW,13.8,-,0.08,Rain,Rain,240,2012-12-29 15:14:00
7:20 AM,64.4,48.2,56,30.03,5.0,WSW,11.5,-,0.08,Rain,Light Rain,240,2012-12-29 15:20:00
7:53 AM,54.3,48.0,79,30.02,7.0,WSW,8.1,-,0.08,,Overcast,240,2012-12-29 15:53:00
8:53 AM,54.3,46.9,76,30.03,7.0,WNW,12.7,-,N/A,,Scattered Clouds,300,2012-12-29 16:53:00
9:53 AM,54.1,46.9,77,30.03,7.0,WNW,16.1,-,N/A,,Scattered Clouds,290,2012-12-29 17:53:00
10:53 AM,54.3,46.9,76,30.02,7.0,NW,16.1,-,N/A,,Scattered Clouds,310,2012-12-29 18:53:00
11:53 AM,54.1,46.0,74,29.99,7.0,WNW,12.7,-,N/A,,Scattered Clouds,300,2012-12-29 19:53:00
12:53 PM,54.7,46.0,73,29.97,7.0,NW,10.4,-,N/A,,Scattered Clouds,310,2012-12-29 20:53:00
1:53 PM,55.6,44.1,65,29.96,7.0,NW,12.7,-,N/A,,Scattered Clouds,310,2012-12-29 21:53:00
2:53 PM,56.1,45.0,66,29.96,7.0,WNW,10.4,-,N/A,,Scattered Clouds,300,2012-12-29 22:53:00
3:53 PM,71.1,43.0,36,29.96,10.0,WNW,6.9,-,N/A,,Clear,300,2012-12-29 23:53:00
4:53 PM,64.9,42.1,43,29.96,10.0,West,5.8,-,N/A,,Clear,270,2012-12-30 00:53:00
5:53 PM,60.1,39.9,47,29.98,10.0,West,6.9,-,N/A,,Clear,280,2012-12-30 01:53:00
6:53 PM,57.9,39.0,49,29.99,10.0,WNW,6.9,-,N/A,,Clear,290,2012-12-30 02:53:00
7:53 PM,57.0,39.0,51,30.00,10.0,WNW,6.9,-,N/A,,Clear,290,2012-12-30 03:53:00
8:53 PM,60.1,39.9,47,30.01,10.0,West,6.9,-,N/A,,Clear,280,2012-12-30 04:53:00
9:53 PM,61.0,39.9,46,30.01,10.0,WNW,5.8,-,N/A,,Clear,290,2012-12-30 05:53:00
10:53 PM,55.9,39.0,53,30.01,10.0,NW,6.9,-,N/A,,Clear,310,2012-12-30 06:53:00
11:53 PM,57.9,39.9,51,30.00,10.0,WNW,5.8,-,N/A,,Clear,300,2012-12-30 07:53:00